createdAt,value
2018-01-05T00:00:23.576Z,8.32
2018-01-05T00:01:32.355Z,8.39
2018-01-05T00:02:41.410Z,8.28
2018-01-05T00:03:49.942Z,8.24
2018-01-05T00:04:58.731Z,8.28
2018-01-05T00:06:07.789Z,8.19
2018-01-05T00:07:16.315Z,8.21
2018-01-05T00:08:25.107Z,8.22
2018-01-05T00:09:33.899Z,8.24
2018-01-05T00:10:42.424Z,8.19
2018-01-05T00:11:51.742Z,8.16
2018-01-05T00:13:00.532Z,8.17
2018-01-05T00:14:09.590Z,8.21
2018-01-05T00:15:18.117Z,8.16
2018-01-05T00:16:26.647Z,8.13
2018-01-05T00:17:35.436Z,8.21
2018-01-05T00:18:44.224Z,8.14
2018-01-05T00:19:53.012Z,8.16
2018-01-05T00:21:01.544Z,8.21
2018-01-05T00:22:10.342Z,8.17
2018-01-05T00:23:19.126Z,8.17
2018-01-05T00:24:28.453Z,8.21
2018-01-05T00:25:37.243Z,8.24
2018-01-05T00:26:46.297Z,8.19
2018-01-05T00:27:55.354Z,8.28
2018-01-05T00:29:03.885Z,8.26
2018-01-05T00:30:12.942Z,8.25
2018-01-05T00:31:21.999Z,8.28
2018-01-05T00:32:30.516Z,8.24
2018-01-05T00:33:39.315Z,8.22
2018-01-05T00:34:47.847Z,8.19
2018-01-05T00:35:56.650Z,8.21
2018-01-05T00:37:05.188Z,8.16
2018-01-05T00:38:13.988Z,8.17
2018-01-05T00:39:22.787Z,8.22
2018-01-05T00:40:31.590Z,8.24
2018-01-05T00:41:40.129Z,8.22
2018-01-05T00:42:48.932Z,8.24
2018-01-05T00:43:57.734Z,8.24
2018-01-05T00:45:06.272Z,8.19
2018-01-05T00:46:15.338Z,8.22
2018-01-05T00:47:24.414Z,8.22
2018-01-05T00:48:32.949Z,8.24
2018-01-05T00:49:41.748Z,8.28
2018-01-05T00:50:50.281Z,8.22
2018-01-05T00:51:59.347Z,8.19
2018-01-05T00:53:08.149Z,8.21
2018-01-05T00:54:17.221Z,8.28
2018-01-05T00:55:26.019Z,8.24
2018-01-05T00:56:34.814Z,8.26
2018-01-05T00:57:44.213Z,8.35
2018-01-05T00:58:53.279Z,8.35
2018-01-05T01:00:02.078Z,8.36
2018-01-05T01:01:10.884Z,8.31
2018-01-05T01:02:19.418Z,8.35
2018-01-05T01:03:27.950Z,8.34
2018-01-05T01:04:36.488Z,8.35
2018-01-05T01:05:45.026Z,8.39
2018-01-05T01:06:53.825Z,8.31
2018-01-05T01:08:02.624Z,8.36
2018-01-05T01:09:11.421Z,8.35
2018-01-05T01:10:20.223Z,8.34
2018-01-05T01:11:29.025Z,8.39
2018-01-05T01:12:37.829Z,8.39
2018-01-05T01:13:46.899Z,8.35
2018-01-05T01:14:55.697Z,8.35
2018-01-05T01:16:05.101Z,8.35
2018-01-05T01:17:14.169Z,8.4
2018-01-05T01:18:22.969Z,8.35
2018-01-05T01:19:31.773Z,8.39
2018-01-05T01:20:40.573Z,8.39
2018-01-05T01:21:49.374Z,8.42
2018-01-05T01:22:57.905Z,8.39
2018-01-05T01:24:06.969Z,8.35
2018-01-05T01:25:15.768Z,8.36
2018-01-05T01:26:24.568Z,8.4
2018-01-05T01:27:33.369Z,8.35
2018-01-05T01:28:42.440Z,8.39
2018-01-05T01:29:51.693Z,8.42
2018-01-05T01:31:00.774Z,8.39
2018-01-05T01:32:09.308Z,8.43
2018-01-05T01:33:17.844Z,8.36
2018-01-05T01:34:26.647Z,8.46
2018-01-05T01:35:35.714Z,8.43
2018-01-05T01:36:44.516Z,8.49
2018-01-05T01:37:53.052Z,8.44
2018-01-05T01:39:01.590Z,8.5
2018-01-05T01:40:10.403Z,8.46
2018-01-05T01:41:18.941Z,8.5
2018-01-05T01:42:28.009Z,8.53
2018-01-05T01:43:36.546Z,8.52
2018-01-05T01:44:45.346Z,8.47
2018-01-05T01:45:54.418Z,8.54
2018-01-05T01:47:03.726Z,8.44
2018-01-05T01:48:12.524Z,8.53
2018-01-05T01:49:21.331Z,8.5
2018-01-05T01:50:29.867Z,8.52
2018-01-05T01:51:38.670Z,8.47
2018-01-05T01:52:48.009Z,8.57
2018-01-05T01:53:57.340Z,8.43
2018-01-05T01:55:05.881Z,8.52
2018-01-05T01:56:14.419Z,8.46
2018-01-05T01:57:23.488Z,8.58
2018-01-05T01:58:32.028Z,8.47
2018-01-05T01:59:40.841Z,8.52
2018-01-05T02:00:49.376Z,8.52
2018-01-05T02:01:58.763Z,8.52
2018-01-05T02:03:07.295Z,8.49
2018-01-05T02:04:16.097Z,8.58
2018-01-05T02:05:24.901Z,8.5
2018-01-05T02:06:33.964Z,8.49
2018-01-05T02:07:42.769Z,8.54
2018-01-05T02:08:51.304Z,8.5
2018-01-05T02:10:00.371Z,8.57
2018-01-05T02:11:09.170Z,8.58
2018-01-05T02:12:17.714Z,8.54
2018-01-05T02:13:26.566Z,8.52
2018-01-05T02:14:35.102Z,8.53
2018-01-05T02:15:43.635Z,8.57
2018-01-05T02:16:52.439Z,8.57
2018-01-05T02:18:01.238Z,8.54
2018-01-05T02:19:10.046Z,8.54
2018-01-05T02:20:19.112Z,8.54
2018-01-05T02:21:27.646Z,8.52
2018-01-05T02:22:36.452Z,8.57
2018-01-05T02:23:45.787Z,8.52
2018-01-05T02:24:54.595Z,8.54
2018-01-05T02:26:03.662Z,8.53
2018-01-05T02:27:12.994Z,8.52
2018-01-05T02:28:21.530Z,8.52
2018-01-05T02:29:30.862Z,8.52
2018-01-05T02:30:39.664Z,8.53
2018-01-05T02:31:48.477Z,8.54
2018-01-05T02:32:57.285Z,8.53
2018-01-05T02:34:06.146Z,8.52
2018-01-05T02:35:14.616Z,8.6
2018-01-05T02:36:23.150Z,8.53
2018-01-05T02:37:31.684Z,8.54
2018-01-05T02:38:40.218Z,8.53
2018-01-05T02:39:49.290Z,8.49
2018-01-05T02:40:57.823Z,8.57
2018-01-05T02:42:06.354Z,8.54
2018-01-05T02:43:14.886Z,8.5
2018-01-05T02:44:23.419Z,8.54
2018-01-05T02:45:32.491Z,8.53
2018-01-05T02:46:41.289Z,8.5
2018-01-05T02:47:49.826Z,8.57
2018-01-05T02:48:58.631Z,8.44
2018-01-05T02:50:07.698Z,8.44
2018-01-05T02:51:16.506Z,8.43
2018-01-05T02:52:26.124Z,8.42
2018-01-05T02:53:34.926Z,8.36
2018-01-05T02:54:43.461Z,8.39
2018-01-05T02:55:51.999Z,8.39
2018-01-05T02:57:00.810Z,8.42
2018-01-05T02:58:09.343Z,8.39
2018-01-05T02:59:18.414Z,8.36
2018-01-05T03:00:27.750Z,8.35
2018-01-05T03:01:36.551Z,8.28
2018-01-05T03:02:45.085Z,8.36
2018-01-05T03:03:53.884Z,8.36
2018-01-05T03:05:02.950Z,8.42
2018-01-05T03:06:11.756Z,8.44
2018-01-05T03:07:20.290Z,8.42
2018-01-05T03:08:29.118Z,8.44
2018-01-05T03:09:37.650Z,8.4
2018-01-05T03:10:46.186Z,8.35
2018-01-05T03:11:55.254Z,8.36
2018-01-05T03:13:03.790Z,8.31
2018-01-05T03:14:12.857Z,8.31
2018-01-05T03:15:21.393Z,8.28
2018-01-05T03:16:30.193Z,8.26
2018-01-05T03:17:39.003Z,8.17
2018-01-05T03:18:47.810Z,8.24
2018-01-05T03:19:56.346Z,8.22
2018-01-05T03:21:05.150Z,8.22
2018-01-05T03:22:14.481Z,8.16
2018-01-05T03:23:23.284Z,8.11
2018-01-05T03:24:32.085Z,8.19
2018-01-05T03:25:40.891Z,8.13
2018-01-05T03:26:49.424Z,8.1
2018-01-05T03:27:57.961Z,8.13
2018-01-05T03:29:06.495Z,8.19
2018-01-05T03:30:15.316Z,8.11
2018-01-05T03:31:23.857Z,8.11
2018-01-05T03:32:32.660Z,8.16
2018-01-05T03:33:41.470Z,8.11
2018-01-05T03:34:50.004Z,8.13
2018-01-05T03:35:58.639Z,8.11
2018-01-05T03:37:07.454Z,8.04
2018-01-05T03:38:16.521Z,8.04
2018-01-05T03:39:25.070Z,8.03
2018-01-05T03:40:34.137Z,8.01
2018-01-05T03:41:42.941Z,8.01
2018-01-05T03:42:51.477Z,8.06
2018-01-05T03:44:00.280Z,8.03
2018-01-05T03:45:08.817Z,8.06
2018-01-05T03:46:17.622Z,8.03
2018-01-05T03:47:26.157Z,8.06
2018-01-05T03:48:34.689Z,7.96
2018-01-05T03:49:43.488Z,7.98
2018-01-05T03:50:54.006Z,7.95
2018-01-05T03:52:02.544Z,7.95
2018-01-05T03:53:11.347Z,7.93
2018-01-05T03:54:20.415Z,7.82
2018-01-05T03:55:28.954Z,7.86
2018-01-05T03:56:37.486Z,7.83
2018-01-05T03:57:46.020Z,7.85
2018-01-05T03:58:54.824Z,7.88
2018-01-05T04:00:03.633Z,7.91
2018-01-05T04:01:12.697Z,7.88
2018-01-05T04:02:21.763Z,7.86
2018-01-05T04:03:30.569Z,7.91
2018-01-05T04:04:39.635Z,7.88
2018-01-05T04:05:48.435Z,7.85
2018-01-05T04:06:57.502Z,7.89
2018-01-05T04:08:06.039Z,7.91
2018-01-05T04:09:14.840Z,7.83
2018-01-05T04:10:23.643Z,7.83
2018-01-05T04:11:32.180Z,7.86
2018-01-05T04:12:40.981Z,7.99
2018-01-05T04:13:49.782Z,7.91
2018-01-05T04:14:58.317Z,7.93
2018-01-05T04:16:06.852Z,7.89
2018-01-05T04:17:15.699Z,7.93
2018-01-05T04:18:24.500Z,7.96
2018-01-05T04:19:33.634Z,7.92
2018-01-05T04:20:42.440Z,7.95
2018-01-05T04:21:50.976Z,7.92
2018-01-05T04:22:59.777Z,7.96
2018-01-05T04:24:08.580Z,8.04
2018-01-05T04:25:17.386Z,7.99
2018-01-05T04:26:25.923Z,8.03
2018-01-05T04:27:34.989Z,8.04
2018-01-05T04:28:43.527Z,7.93
2018-01-05T04:29:52.374Z,8.01
2018-01-05T04:31:00.908Z,7.99
2018-01-05T04:32:09.710Z,8.07
2018-01-05T04:33:18.246Z,7.99
2018-01-05T04:34:27.316Z,7.96
2018-01-05T04:35:35.849Z,7.99
2018-01-05T04:36:44.390Z,8.01
2018-01-05T04:37:53.193Z,7.95
2018-01-05T04:39:01.991Z,7.96
2018-01-05T04:40:10.527Z,8.04
2018-01-05T04:41:19.327Z,8.04
2018-01-05T04:42:28.135Z,8.01
2018-01-05T04:43:37.202Z,8.04
2018-01-05T04:44:46.006Z,7.98
2018-01-05T04:45:54.808Z,8.06
2018-01-05T04:47:04.582Z,8.06
2018-01-05T04:48:13.384Z,7.99
2018-01-05T04:49:22.462Z,8.03
2018-01-05T04:50:31.312Z,8.04
2018-01-05T04:51:40.115Z,8.04
2018-01-05T04:52:48.649Z,8.04
2018-01-05T04:53:57.717Z,8.01
2018-01-05T04:55:06.520Z,8.07
2018-01-05T04:56:15.868Z,8.1
2018-01-05T04:57:24.672Z,8.09
2018-01-05T04:58:33.736Z,8.1
2018-01-05T04:59:42.534Z,8.07
2018-01-05T05:00:51.069Z,8.1
2018-01-05T05:01:59.874Z,8.13
2018-01-05T05:03:08.406Z,8.11
2018-01-05T05:04:17.474Z,8.26
2018-01-05T05:05:26.012Z,8.19
2018-01-05T05:06:35.083Z,8.26
2018-01-05T05:07:43.884Z,8.19
2018-01-05T05:08:52.418Z,8.22
2018-01-05T05:10:01.227Z,8.19
2018-01-05T05:11:10.305Z,8.26
2018-01-05T05:12:19.110Z,8.24
2018-01-05T05:13:28.180Z,8.26
2018-01-05T05:14:36.716Z,8.34
2018-01-05T05:15:45.251Z,8.31
2018-01-05T05:16:54.053Z,8.39
2018-01-05T05:18:02.856Z,8.21
2018-01-05T05:19:11.390Z,8.34
2018-01-05T05:20:20.454Z,8.34
2018-01-05T05:21:28.988Z,8.31
2018-01-05T05:22:37.790Z,8.31
2018-01-05T05:23:46.328Z,8.32
2018-01-05T05:24:55.131Z,8.46
2018-01-05T05:26:03.942Z,8.52
2018-01-05T05:27:13.013Z,8.42
2018-01-05T05:28:21.827Z,8.46
2018-01-05T05:29:30.627Z,8.46
2018-01-05T05:30:39.430Z,8.54
2018-01-05T05:31:48.237Z,8.52
2018-01-05T05:32:57.305Z,8.44
2018-01-05T05:34:06.104Z,8.5
2018-01-05T05:35:14.904Z,8.52
2018-01-05T05:36:23.437Z,8.52
2018-01-05T05:37:32.507Z,8.6
2018-01-05T05:38:41.582Z,8.6
2018-01-05T05:39:50.380Z,8.54
2018-01-05T05:40:59.181Z,8.53
2018-01-05T05:42:08.249Z,8.6
2018-01-05T05:43:16.785Z,8.61
2018-01-05T05:44:25.322Z,8.68
2018-01-05T05:45:34.123Z,8.71
2018-01-05T05:46:42.921Z,8.71
2018-01-05T05:47:51.723Z,8.64
2018-01-05T05:49:00.528Z,8.67
2018-01-05T05:50:09.329Z,8.67
2018-01-05T05:51:17.861Z,8.62
2018-01-05T05:52:26.932Z,8.67
2018-01-05T05:53:35.734Z,8.67
2018-01-05T05:54:44.267Z,8.71
2018-01-05T05:55:53.335Z,8.69
2018-01-05T05:57:01.869Z,8.69
2018-01-05T05:58:10.404Z,8.68
2018-01-05T05:59:18.949Z,8.74
2018-01-05T06:00:27.486Z,8.71
2018-01-05T06:01:36.019Z,8.67
2018-01-05T06:02:44.827Z,8.65
2018-01-05T06:03:53.629Z,8.71
2018-01-05T06:05:02.170Z,8.71
2018-01-05T06:06:10.703Z,8.64
2018-01-05T06:07:19.507Z,8.69
2018-01-05T06:08:28.321Z,8.64
2018-01-05T06:09:36.860Z,8.64
2018-01-05T06:10:45.393Z,8.65
2018-01-05T06:11:54.725Z,8.64
2018-01-05T06:13:03.531Z,8.6
2018-01-05T06:14:12.334Z,8.54
2018-01-05T06:15:20.867Z,8.53
2018-01-05T06:16:29.402Z,8.53
2018-01-05T06:17:39.013Z,8.49
2018-01-05T06:18:47.546Z,8.4
2018-01-05T06:19:56.347Z,8.34
2018-01-05T06:21:05.151Z,8.44
2018-01-05T06:22:13.953Z,8.4
2018-01-05T06:23:22.752Z,8.35
2018-01-05T06:24:31.287Z,8.29
2018-01-05T06:25:40.593Z,8.24
2018-01-05T06:26:49.398Z,8.17
2018-01-05T06:27:57.935Z,8.24
2018-01-05T06:29:06.743Z,8.22
2018-01-05T06:30:15.279Z,8.09
2018-01-05T06:31:24.080Z,8.09
2018-01-05T06:32:32.615Z,8.01
2018-01-05T06:33:41.415Z,8.01
2018-01-05T06:34:49.950Z,7.98
2018-01-05T06:35:58.752Z,7.96
2018-01-05T06:37:07.816Z,7.96
2018-01-05T06:38:16.619Z,7.83
2018-01-05T06:39:25.419Z,7.92
2018-01-05T06:40:33.950Z,7.95
2018-01-05T06:41:42.754Z,7.83
2018-01-05T06:42:51.557Z,7.8
2018-01-05T06:44:00.893Z,7.88
2018-01-05T06:45:10.094Z,7.85
2018-01-05T06:46:18.626Z,7.85
2018-01-05T06:47:27.159Z,7.82
2018-01-05T06:48:35.962Z,7.73
2018-01-05T06:49:44.765Z,7.71
2018-01-05T06:50:53.568Z,7.59
2018-01-05T06:52:02.125Z,7.64
2018-01-05T06:53:10.928Z,7.56
2018-01-05T06:54:19.728Z,7.61
2018-01-05T06:55:28.266Z,7.55
2018-01-05T06:56:36.804Z,7.54
2018-01-05T06:57:45.605Z,7.55
2018-01-05T06:58:54.403Z,7.58
2018-01-05T07:00:02.937Z,7.47
2018-01-05T07:01:12.008Z,7.51
2018-01-05T07:02:20.543Z,7.49
2018-01-05T07:03:29.607Z,7.64
2018-01-05T07:04:38.406Z,7.48
2018-01-05T07:05:46.940Z,7.52
2018-01-05T07:06:55.739Z,7.52
2018-01-05T07:08:04.276Z,7.55
2018-01-05T07:09:13.086Z,7.52
2018-01-05T07:10:21.890Z,7.51
2018-01-05T07:11:30.415Z,7.58
2018-01-05T07:12:39.228Z,7.49
2018-01-05T07:13:48.291Z,7.52
2018-01-05T07:14:57.092Z,7.55
2018-01-05T07:16:05.893Z,7.55
2018-01-05T07:17:14.428Z,7.59
2018-01-05T07:18:22.965Z,7.58
2018-01-05T07:19:31.504Z,7.54
2018-01-05T07:20:40.031Z,7.56
2018-01-05T07:21:48.831Z,7.51
2018-01-05T07:22:57.367Z,7.52
2018-01-05T07:24:06.594Z,7.55
2018-01-05T07:25:15.399Z,7.55
2018-01-05T07:26:23.931Z,7.52
2018-01-05T07:27:32.465Z,7.59
2018-01-05T07:28:41.266Z,7.56
2018-01-05T07:29:50.336Z,7.52
2018-01-05T07:30:59.409Z,7.56
2018-01-05T07:32:08.349Z,7.52
2018-01-05T07:33:17.051Z,7.49
2018-01-05T07:34:26.618Z,7.56
2018-01-05T07:35:35.683Z,7.51
2018-01-05T07:36:44.750Z,7.52
2018-01-05T07:37:53.325Z,7.54
2018-01-05T07:39:02.185Z,7.59
2018-01-05T07:40:11.141Z,7.55
2018-01-05T07:41:19.696Z,7.54
2018-01-05T07:42:28.267Z,7.52
2018-01-05T07:43:37.344Z,7.47
2018-01-05T07:44:46.469Z,7.54
2018-01-05T07:45:55.996Z,7.55
2018-01-05T07:47:04.814Z,7.48
2018-01-05T07:48:13.848Z,7.54
2018-01-05T07:49:23.276Z,7.54
2018-01-05T07:50:33.033Z,7.52
2018-01-05T07:51:42.112Z,7.58
2018-01-05T08:04:37.168Z,7.61
2018-01-05T08:05:46.501Z,7.58
2018-01-05T08:06:55.776Z,7.64
2018-01-05T08:08:04.785Z,7.55
2018-01-05T08:09:13.670Z,7.52
2018-01-05T08:10:22.632Z,7.54
2018-01-05T08:11:33.102Z,7.48
2018-01-05T08:12:42.256Z,7.47
2018-01-05T08:13:51.918Z,7.52
2018-01-05T08:15:00.725Z,7.37
2018-01-05T08:16:09.913Z,7.44
2018-01-05T08:17:18.829Z,7.44
2018-01-05T08:18:27.983Z,7.41
2018-01-05T08:19:37.332Z,7.39
2018-01-05T08:20:46.197Z,7.34
2018-01-05T08:21:55.221Z,7.37
2018-01-05T08:23:04.973Z,7.41
2018-01-05T08:24:27.743Z,7.37
2018-01-05T08:25:36.770Z,7.44
2018-01-05T08:26:45.622Z,7.36
2018-01-05T08:27:54.365Z,7.44
2018-01-05T08:29:03.610Z,7.49
2018-01-05T08:30:17.032Z,7.51
2018-01-05T08:31:26.239Z,7.52
2018-01-05T08:32:35.879Z,7.52
2018-01-05T08:35:23.749Z,7.55
2018-01-05T08:36:32.814Z,7.58
2018-01-05T08:37:42.598Z,7.55
2018-01-05T08:38:51.621Z,7.55
2018-01-05T08:40:00.755Z,7.55
2018-01-05T08:41:09.617Z,7.51
2018-01-05T08:42:19.147Z,7.54
2018-01-05T08:43:27.996Z,7.59
2018-01-05T08:46:15.560Z,7.59
2018-01-05T08:47:25.030Z,7.75
2018-01-05T11:16:27.064Z,10.1
2018-01-05T11:17:36.663Z,10.02
2018-01-05T11:18:45.345Z,10.03
2018-01-05T11:19:54.158Z,10
2018-01-05T11:21:02.955Z,10.02
2018-01-05T11:22:11.492Z,10.08
2018-01-05T11:23:20.567Z,10.03
2018-01-05T11:24:29.102Z,9.99
2018-01-05T11:25:37.637Z,10.07
2018-01-05T11:26:46.445Z,10.08
2018-01-05T11:27:54.980Z,10.17
2018-01-05T11:29:03.613Z,10.13
2018-01-05T11:30:12.419Z,10.05
2018-01-05T11:31:21.221Z,10.13
2018-01-05T11:32:30.526Z,10.23
2018-01-05T11:33:39.067Z,10.2
2018-01-05T11:34:47.934Z,10.23
2018-01-05T11:35:56.739Z,10.31
2018-01-05T11:37:05.543Z,10.25
2018-01-05T11:38:14.352Z,10.21
2018-01-05T11:39:23.425Z,10.21
2018-01-05T11:40:32.496Z,10.32
2018-01-05T11:41:41.032Z,10.39
2018-01-05T11:42:50.371Z,10.41
2018-01-05T11:43:58.906Z,10.44
2018-01-05T11:45:07.718Z,10.42
2018-01-05T11:46:16.256Z,10.54
2018-01-05T11:47:25.401Z,10.49
2018-01-05T11:48:34.228Z,10.59
2018-01-05T11:49:43.030Z,10.59
2018-01-05T11:50:52.104Z,10.55
2018-01-05T11:52:01.449Z,10.52
2018-01-05T11:53:09.986Z,10.55
2018-01-05T11:54:18.788Z,10.63
2018-01-05T11:55:27.593Z,10.66
2018-01-05T11:56:36.131Z,10.72
2018-01-05T11:57:44.938Z,10.69
2018-01-05T11:58:53.740Z,10.7
2018-01-05T12:00:02.544Z,10.76
2018-01-05T12:01:11.346Z,10.72
2018-01-05T12:02:20.424Z,10.91
2018-01-05T12:03:29.225Z,10.87
2018-01-05T12:04:38.029Z,10.87
2018-01-05T12:05:47.099Z,10.95
2018-01-05T12:06:55.956Z,10.91
2018-01-05T12:08:04.757Z,11.03
2018-01-05T12:09:13.827Z,11.03
2018-01-05T12:10:22.897Z,11
2018-01-05T12:11:31.701Z,11
2018-01-05T12:12:40.505Z,10.98
2018-01-05T12:13:49.306Z,11.08
2018-01-05T12:14:58.376Z,11.08
2018-01-05T12:16:07.177Z,11.03
2018-01-05T12:17:15.713Z,11
2018-01-05T12:18:24.249Z,11
2018-01-05T12:19:33.053Z,10.98
2018-01-05T12:20:42.132Z,11.03
2018-01-05T12:21:50.935Z,11.02
2018-01-05T12:22:59.739Z,11.02
2018-01-05T12:24:08.810Z,11.02
2018-01-05T12:25:17.887Z,11.06
2018-01-05T12:26:26.424Z,11.05
2018-01-05T12:27:35.490Z,11.06
2018-01-05T12:28:44.296Z,11
2018-01-05T12:29:53.106Z,11.05
2018-01-05T12:31:01.655Z,11
2018-01-05T12:32:10.457Z,11.02
2018-01-05T12:33:18.994Z,11.03
2018-01-05T12:34:27.799Z,11.1
2018-01-05T12:35:36.603Z,11
2018-01-05T12:36:45.670Z,10.98
2018-01-05T12:37:54.747Z,11.08
2018-01-05T12:39:03.283Z,11
2018-01-05T12:40:12.085Z,11.03
2018-01-05T12:41:20.688Z,10.98
2018-01-05T12:42:29.764Z,10.98
2018-01-05T12:43:38.837Z,11
2018-01-05T12:44:47.912Z,11
2018-01-05T12:45:56.718Z,11
2018-01-05T12:47:05.524Z,10.9
2018-01-05T12:48:14.329Z,11.08
2018-01-05T12:49:23.130Z,10.98
2018-01-05T12:50:32.198Z,10.98
2018-01-05T12:51:41.002Z,10.98
2018-01-05T12:52:49.814Z,11.08
2018-01-05T12:53:58.617Z,10.97
2018-01-05T12:55:07.422Z,10.97
2018-01-05T12:56:15.962Z,10.98
2018-01-05T12:57:24.769Z,11.06
2018-01-05T12:58:33.305Z,10.92
2018-01-05T12:59:41.842Z,11.03
2018-01-05T13:00:50.376Z,11
2018-01-05T13:01:59.181Z,11
2018-01-05T13:03:08.257Z,11.03
2018-01-05T13:04:17.060Z,10.94
2018-01-05T13:05:25.599Z,11.03
2018-01-05T13:06:34.402Z,10.98
2018-01-05T13:07:43.207Z,11
2018-01-05T13:08:52.281Z,11.03
2018-01-05T13:10:01.354Z,11.02
2018-01-05T13:11:09.888Z,11.02
2018-01-05T13:12:18.739Z,10.97
2018-01-05T13:13:27.814Z,10.98
2018-01-05T13:14:36.616Z,11.02
2018-01-05T13:15:45.149Z,10.87
2018-01-05T13:16:54.253Z,10.88
2018-01-05T13:18:02.791Z,10.87
2018-01-05T13:19:11.864Z,10.94
2018-01-05T13:20:20.668Z,10.84
2018-01-05T13:21:29.472Z,10.88
2018-01-05T13:22:38.011Z,10.92
2018-01-05T13:23:46.821Z,10.88
2018-01-05T13:24:55.360Z,10.87
2018-01-05T13:26:04.159Z,10.77
2018-01-05T13:27:13.235Z,10.77
2018-01-05T13:28:22.039Z,10.85
2018-01-05T13:29:30.849Z,10.77
2018-01-05T13:30:39.653Z,10.76
2018-01-05T13:31:48.458Z,10.8
2018-01-05T13:32:57.266Z,10.77
2018-01-05T13:34:06.073Z,10.76
2018-01-05T13:35:14.876Z,10.73
2018-01-05T13:36:23.423Z,10.76
2018-01-05T13:37:32.494Z,10.69
2018-01-05T13:38:41.830Z,10.67
2018-01-05T13:39:50.637Z,10.75
2018-01-05T13:40:59.174Z,10.73
2018-01-05T13:42:07.977Z,10.75
2018-01-05T13:43:16.782Z,10.7
2018-01-05T13:44:25.859Z,10.73
2018-01-05T13:45:34.671Z,10.7
2018-01-05T13:46:43.207Z,10.65
2018-01-05T13:47:52.010Z,10.67
2018-01-05T13:49:00.903Z,10.63
2018-01-05T13:50:09.399Z,10.7
2018-01-05T13:51:18.198Z,10.67
2018-01-05T13:52:27.100Z,10.61
2018-01-05T13:53:35.903Z,10.66
2018-01-05T13:54:44.708Z,10.67
2018-01-05T13:55:53.807Z,10.55
2018-01-05T13:57:02.352Z,10.65
2018-01-05T13:58:11.691Z,10.59
2018-01-05T13:59:20.230Z,10.7
2018-01-05T14:00:28.764Z,10.59
2018-01-05T14:01:37.566Z,10.7
2018-01-05T14:02:46.369Z,10.61
2018-01-05T14:03:55.172Z,10.61
2018-01-05T14:05:03.710Z,10.57
2018-01-05T14:06:12.245Z,10.58
2018-01-05T14:07:21.050Z,10.61
2018-01-05T14:08:29.586Z,10.59
2018-01-05T14:09:38.390Z,10.61
2018-01-05T14:10:47.461Z,10.66
2018-01-05T14:11:56.532Z,10.61
2018-01-05T14:13:05.341Z,10.61
2018-01-05T14:14:13.876Z,10.55
2018-01-05T14:15:22.412Z,10.67
2018-01-05T14:16:31.214Z,10.59
2018-01-05T14:17:40.021Z,10.58
2018-01-05T14:18:48.824Z,10.57
2018-01-05T14:19:57.899Z,10.59
2018-01-05T14:21:06.998Z,10.59
2018-01-05T14:22:15.809Z,10.67
2018-01-05T14:23:24.349Z,10.57
2018-01-05T14:24:33.429Z,10.69
2018-01-05T14:25:42.241Z,10.66
2018-01-05T14:26:51.053Z,10.66
2018-01-05T14:27:59.595Z,10.61
2018-01-05T14:29:08.930Z,10.73
2018-01-05T14:30:17.736Z,10.7
2018-01-05T14:31:26.545Z,10.69
2018-01-05T14:32:35.084Z,10.73
2018-01-05T14:33:43.893Z,10.67
2018-01-05T14:34:52.704Z,10.66
2018-01-05T14:36:01.655Z,10.63
2018-01-05T14:37:10.460Z,10.66
2018-01-05T14:38:19.088Z,10.67
2018-01-05T14:39:27.768Z,10.65
2018-01-05T14:40:37.054Z,10.58
2018-01-05T14:41:45.589Z,10.66
2018-01-05T14:42:54.134Z,10.61
2018-01-05T14:44:02.940Z,10.61
2018-01-05T14:45:11.480Z,10.54
2018-01-05T14:46:20.285Z,10.59
2018-01-05T14:47:29.090Z,10.54
2018-01-05T14:48:37.625Z,10.55
2018-01-05T14:49:46.693Z,10.47
2018-01-05T14:50:55.230Z,10.42
2018-01-05T14:52:04.035Z,10.49
2018-01-05T14:53:12.900Z,10.38
2018-01-05T14:54:21.437Z,10.47
2018-01-05T14:55:30.239Z,10.41
2018-01-05T14:56:38.776Z,10.33
2018-01-05T14:57:47.580Z,10.35
2018-01-05T14:58:56.648Z,10.28
2018-01-05T15:00:05.451Z,10.25
2018-01-05T15:01:14.970Z,10.21
2018-01-05T15:02:23.512Z,10.21
2018-01-05T15:03:32.583Z,10.2
2018-01-05T15:04:41.387Z,10.21
2018-01-05T15:05:50.454Z,10.21
2018-01-05T15:06:59.526Z,10.14
2018-01-05T15:08:08.337Z,10.1
2018-01-05T15:09:17.134Z,10.11
2018-01-05T15:10:26.856Z,10.1
2018-01-05T15:11:35.665Z,10.15
2018-01-05T15:12:44.742Z,10.07
2018-01-05T15:13:53.825Z,10.02
2018-01-05T15:15:02.370Z,9.93
2018-01-05T15:16:11.175Z,9.96
2018-01-05T15:17:19.712Z,10.02
2018-01-05T15:18:28.248Z,9.99
2018-01-05T15:19:36.782Z,10.03
2018-01-05T15:20:45.586Z,9.98
2018-01-05T15:21:54.698Z,9.95
2018-01-05T15:23:03.808Z,10.08
2018-01-05T15:24:12.647Z,10.07
2018-01-05T15:25:21.476Z,10.07
2018-01-05T15:26:30.015Z,10.1
2018-01-05T15:27:38.820Z,10.1
2018-01-05T15:28:47.623Z,10.08
2018-01-05T15:29:56.426Z,10.02
2018-01-05T15:31:04.970Z,10.08
2018-01-05T15:32:13.774Z,9.96
2018-01-05T15:33:22.313Z,9.95
2018-01-05T15:34:31.561Z,9.96
2018-01-05T15:35:42.085Z,9.89
2018-01-05T15:36:51.155Z,9.99
2018-01-05T15:37:59.695Z,9.89
2018-01-05T15:39:08.507Z,9.89
2018-01-05T15:40:17.575Z,9.93
2018-01-05T15:41:26.114Z,9.84
2018-01-05T15:42:35.372Z,9.85
2018-01-05T15:43:44.774Z,9.82
2018-01-05T15:44:53.847Z,9.84
2018-01-05T15:46:02.431Z,9.85
2018-01-05T15:47:10.919Z,9.78
2018-01-05T15:48:19.722Z,9.82
2018-01-05T15:49:28.255Z,9.8
2018-01-05T15:50:37.335Z,9.81
2018-01-05T15:51:45.870Z,9.78
2018-01-05T15:52:54.464Z,9.77
2018-01-05T15:54:03.280Z,9.8
2018-01-05T15:55:12.452Z,9.74
2018-01-05T15:56:21.524Z,9.75
2018-01-05T15:57:30.058Z,9.77
2018-01-05T15:58:38.591Z,9.77
2018-01-05T15:59:47.127Z,9.74
2018-01-05T16:00:55.663Z,9.74
2018-01-05T16:02:04.539Z,9.74
2018-01-05T16:03:13.615Z,9.75
2018-01-05T16:04:22.422Z,9.74
2018-01-05T16:05:31.494Z,9.74
2018-01-05T16:06:40.298Z,9.72
2018-01-05T16:07:49.365Z,9.67
2018-01-05T16:08:58.167Z,9.74
2018-01-05T16:10:06.704Z,9.71
2018-01-05T16:11:16.049Z,9.72
2018-01-05T16:12:24.587Z,9.72
2018-01-05T16:13:33.129Z,9.74
2018-01-05T16:14:41.670Z,9.77
2018-01-05T16:15:50.786Z,9.77
2018-01-05T16:16:59.856Z,9.71
2018-01-05T16:18:08.393Z,9.77
2018-01-05T16:19:16.931Z,9.75
2018-01-05T16:20:25.734Z,9.77
2018-01-05T16:21:34.542Z,9.74
2018-01-05T16:22:43.346Z,9.72
2018-01-05T16:23:52.414Z,9.74
2018-01-05T16:25:01.217Z,9.67
2018-01-05T16:26:09.760Z,9.77
2018-01-05T16:27:18.609Z,9.77
2018-01-05T16:28:27.410Z,9.77
2018-01-05T16:29:36.754Z,9.78
2018-01-05T16:30:46.268Z,9.66
2018-01-05T16:31:55.079Z,9.75
2018-01-05T16:33:03.615Z,9.74
2018-01-05T16:34:12.151Z,9.77
2018-01-05T16:35:20.683Z,9.78
2018-01-05T16:36:29.751Z,9.77
2018-01-05T16:37:38.289Z,9.72
2018-01-05T16:38:46.828Z,9.75
2018-01-05T16:39:55.895Z,9.77
2018-01-05T16:41:04.438Z,9.7
2018-01-05T16:42:13.507Z,9.77
2018-01-05T16:43:22.045Z,9.77
2018-01-05T16:44:30.858Z,9.77
2018-01-05T16:45:40.131Z,9.74
2018-01-05T16:46:48.931Z,9.74
2018-01-05T16:47:57.733Z,9.77
2018-01-05T16:49:06.299Z,9.75
2018-01-05T16:50:14.835Z,9.72
2018-01-05T16:51:23.636Z,9.74
2018-01-05T16:52:34.474Z,9.74
2018-01-05T16:53:43.276Z,9.67
2018-01-05T16:54:52.359Z,9.77
2018-01-05T16:56:00.897Z,9.78
2018-01-05T16:57:09.436Z,9.75
2018-01-05T16:58:18.247Z,9.78
2018-01-05T16:59:27.320Z,9.78
2018-01-05T17:00:35.855Z,9.75
2018-01-05T17:01:44.396Z,9.8
2018-01-05T17:02:52.933Z,9.8
2018-01-05T17:04:01.528Z,9.75
2018-01-05T17:05:10.384Z,9.72
2018-01-05T17:06:19.202Z,9.71
2018-01-05T17:07:28.273Z,9.72
2018-01-05T17:08:36.807Z,9.85
2018-01-05T17:09:45.341Z,9.81
2018-01-05T17:10:54.675Z,9.72
2018-01-05T17:12:03.478Z,9.82
2018-01-05T17:13:12.281Z,9.77
2018-01-05T17:14:21.087Z,9.8
2018-01-05T17:15:30.425Z,9.75
2018-01-05T17:16:39.224Z,9.8
2018-01-05T17:17:48.026Z,9.78
2018-01-05T17:18:56.564Z,9.72
2018-01-05T17:20:05.366Z,9.84
2018-01-05T17:21:14.171Z,9.85
2018-01-05T17:22:22.975Z,9.8
2018-01-05T17:23:31.513Z,9.82
2018-01-05T17:24:40.052Z,9.81
2018-01-05T17:25:48.589Z,9.82
2018-01-05T17:26:57.394Z,9.77
2018-01-05T17:28:06.209Z,9.85
2018-01-05T17:29:14.742Z,9.71
2018-01-05T17:30:23.277Z,9.78
2018-01-05T17:31:32.348Z,9.88
2018-01-05T17:32:41.148Z,9.75
2018-01-05T17:33:49.952Z,9.77
2018-01-05T17:34:58.757Z,9.77
2018-01-05T17:36:07.558Z,9.77
2018-01-05T17:37:16.622Z,9.81
2018-01-05T17:38:25.695Z,9.78
2018-01-05T17:39:35.036Z,9.81
2018-01-05T17:40:43.571Z,9.82
2018-01-05T17:41:52.109Z,9.77
2018-01-05T17:43:00.645Z,9.82
2018-01-05T17:44:09.715Z,9.82
2018-01-05T17:45:18.523Z,9.81
2018-01-05T17:46:27.324Z,9.85
2018-01-05T17:47:36.128Z,9.89
2018-01-05T17:48:44.669Z,9.8
2018-01-05T17:49:53.740Z,9.82
2018-01-05T17:51:02.814Z,9.77
2018-01-05T17:52:11.352Z,9.81
2018-01-05T17:53:20.153Z,9.72
2018-01-05T17:54:28.955Z,9.8